Time;durP1;ratioP1;P1;durP2;ratioP2;P2;SDS_P1;SDS_P2;PMS_P1;PMS_P2;Temp;Humidity;BMP_temperature;BMP_pressure;BME280_temperature;BME280_humidity;BME280_pressure;Samples;Min_cycle;Max_cycle;Signal;HPM_P1;HPM_P2
2022/10/19 00:01:09;;;;;;;28.15;26.20;;;;;;;14.53;64.14;102776.69;4975962;28;20042;-76
2022/10/19 00:03:35;;;;;;;25.75;24.17;;;;;;;14.51;64.06;102781.47;4976269;28;20034;-74
2022/10/19 00:06:17;;;;;;;26.08;24.35;;;;;;;14.49;64.27;102781.72;4976137;28;20037;-74
2022/10/19 00:08:43;;;;;;;26.10;24.58;;;;;;;14.47;64.34;102772.94;4976100;28;20023;-73
2022/10/19 00:11:10;;;;;;;26.65;25.02;;;;;;;14.45;64.08;102785.91;4975734;28;20037;-75
2022/10/19 00:13:35;;;;;;;26.60;24.55;;;;;;;14.45;64.10;102779.66;4975719;28;20037;-74
2022/10/19 00:16:05;;;;;;;27.17;25.60;;;;;;;14.44;64.33;102778.00;4975860;28;20370;-74
2022/10/19 00:18:31;;;;;;;26.98;25.25;;;;;;;14.42;64.30;102771.94;4974482;28;20042;-74
2022/10/19 00:21:08;;;;;;;26.30;24.30;;;;;;;14.41;64.07;102760.25;4974890;28;20043;-75
2022/10/19 00:23:33;;;;;;;25.85;24.08;;;;;;;14.39;63.87;102759.63;4975691;28;20023;-75
2022/10/19 00:25:59;;;;;;;25.90;24.42;;;;;;;14.37;64.09;102756.28;4974001;28;20038;-75
2022/10/19 00:28:25;;;;;;;26.70;25.10;;;;;;;14.37;64.04;102763.59;4975605;28;20037;-75
2022/10/19 00:30:51;;;;;;;24.55;23.15;;;;;;;14.36;64.19;102761.91;4976109;28;20030;-77
2022/10/19 00:33:20;;;;;;;26.63;24.92;;;;;;;14.33;64.02;102754.22;4975839;28;20455;-73
2022/10/19 00:35:48;;;;;;;27.45;25.85;;;;;;;14.32;63.95;102761.53;4974921;28;20086;-75
2022/10/19 00:38:14;;;;;;;27.52;25.92;;;;;;;14.31;64.09;102761.75;4975190;28;20034;-75
2022/10/19 00:40:40;;;;;;;25.77;23.85;;;;;;;14.28;64.06;102760.28;4958030;28;20059;-74
2022/10/19 00:43:14;;;;;;;26.90;25.10;;;;;;;14.28;63.98;102768.44;4975201;28;20037;-74
2022/10/19 00:45:39;;;;;;;26.63;24.90;;;;;;;14.26;63.97;102765.09;4975424;28;20038;-74
2022/10/19 00:48:06;;;;;;;26.30;24.65;;;;;;;14.24;64.13;102769.97;4975592;28;20035;-74
2022/10/19 00:50:31;;;;;;;27.95;26.15;;;;;;;14.22;64.25;102764.72;4975520;28;20039;-76
2022/10/19 00:52:57;;;;;;;25.33;23.90;;;;;;;14.21;64.28;102760.34;4974766;28;20035;-75
2022/10/19 00:55:23;;;;;;;27.92;25.92;;;;;;;14.21;64.20;102762.22;4975049;28;20110;-76
2022/10/19 00:57:49;;;;;;;26.23;24.45;;;;;;;14.18;63.89;102763.47;4975050;28;20038;-75
2022/10/19 01:00:14;;;;;;;25.00;23.60;;;;;;;14.18;64.01;102765.38;4975232;28;20035;-74
2022/10/19 01:02:39;;;;;;;26.67;25.15;;;;;;;14.16;63.88;102765.59;4957513;28;20138;-75
2022/10/19 01:05:06;;;;;;;25.45;24.05;;;;;;;14.16;64.00;102772.91;4975418;28;20034;-76
2022/10/19 01:07:32;;;;;;;26.17;24.67;;;;;;;14.14;64.02;102772.31;4975294;28;20038;-76
2022/10/19 01:09:59;;;;;;;26.58;24.63;;;;;;;14.12;64.32;102764.38;4975596;28;20538;-74
2022/10/19 01:12:54;;;;;;;26.42;24.45;;;;;;;14.11;63.76;102751.84;4974818;28;20118;-76
2022/10/19 01:15:36;;;;;;;26.08;24.38;;;;;;;14.09;64.15;102756.66;4975494;28;20031;-75
2022/10/19 01:18:17;;;;;;;27.00;25.50;;;;;;;14.06;63.78;102752.47;4974743;28;20489;-74
2022/10/19 01:21:01;;;;;;;25.60;23.90;;;;;;;14.05;63.86;102760.84;4975031;28;20035;-76
2022/10/19 01:23:54;;;;;;;28.20;26.20;;;;;;;14.04;64.05;102761.91;4974305;28;20041;-75
2022/10/19 01:26:53;;;;;;;25.02;23.50;;;;;;;14.01;63.79;102754.16;4974946;28;20045;-75
2022/10/19 01:29:36;;;;;;;;;;;;;;;13.99;63.79;102759.00;4975114;28;20046;-74
2022/10/19 01:32:19;;;;;;;25.27;23.48;;;;;;;13.96;64.00;102764.84;4974369;28;19933;-76
2022/10/19 01:35:04;;;;;;;25.67;23.90;;;;;;;13.94;63.90;102764.25;4974696;28;20139;-75
2022/10/19 01:37:50;;;;;;;25.15;23.75;;;;;;;13.92;63.79;102764.47;4974578;28;20122;-75
2022/10/19 01:40:27;;;;;;;25.35;23.90;;;;;;;13.91;63.82;102768.22;4975054;28;20073;-74
2022/10/19 01:43:07;;;;;;;24.15;22.65;;;;;;;13.89;63.95;102759.47;4974505;28;20114;-74
2022/10/19 01:45:59;;;;;;;25.10;23.48;;;;;;;13.89;64.03;102753.19;4974965;28;20437;-74
2022/10/19 01:48:33;;;;;;;26.05;24.33;;;;;;;13.87;64.05;102752.56;4978622;28;20125;-74
2022/10/19 01:51:01;;;;;;;24.98;23.38;;;;;;;13.87;64.19;102752.56;4978975;28;20037;-76
2022/10/19 01:53:31;;;;;;;24.95;23.55;;;;;;;13.84;63.82;102751.13;4978782;28;20363;-76
2022/10/19 01:56:00;;;;;;;25.92;24.25;;;;;;;13.83;63.73;102744.88;4978363;28;20031;-79
2022/10/19 01:58:30;;;;;;;26.50;24.80;;;;;;;13.82;64.04;102740.47;4978134;28;20089;-77
2022/10/19 02:01:00;;;;;;;23.73;22.27;;;;;;;13.81;63.82;102733.38;4978398;28;20077;-75
2022/10/19 02:03:26;;;;;;;26.90;25.40;;;;;;;13.80;63.75;102734.41;4977626;28;20089;-76
2022/10/19 02:05:53;;;;;;;25.65;24.05;;;;;;;13.79;63.93;102721.88;4977991;28;20042;-76
2022/10/19 02:08:29;;;;;;;26.02;24.30;;;;;;;13.79;64.09;102729.22;4978083;28;20039;-76
2022/10/19 02:10:57;;;;;;;23.58;22.27;;;;;;;13.77;63.80;102729.41;4978097;28;20081;-76
2022/10/19 02:13:24;;;;;;;26.00;23.73;;;;;;;13.76;63.95;102722.31;4977962;28;20118;-76
2022/10/19 02:15:53;;;;;;;24.98;23.38;;;;;;;13.74;63.87;102718.16;4977957;28;20038;-75
2022/10/19 02:18:25;;;;;;;25.27;23.42;;;;;;;13.73;64.16;102713.75;4977800;28;20065;-75
2022/10/19 02:20:51;;;;;;;26.85;25.02;;;;;;;13.73;63.79;102711.03;4977733;28;20023;-75
2022/10/19 02:23:20;;;;;;;25.45;23.75;;;;;;;13.70;63.85;102711.47;4977783;28;20027;-76
2022/10/19 02:25:45;;;;;;;24.90;23.52;;;;;;;13.69;63.96;102701.69;4977689;28;20463;-76
2022/10/19 02:28:11;;;;;;;25.05;23.63;;;;;;;13.67;63.74;102693.72;4978192;28;20038;-75
2022/10/19 02:30:36;;;;;;;25.45;23.77;;;;;;;13.67;63.80;102692.91;4978106;28;20063;-76
2022/10/19 02:33:02;;;;;;;23.55;22.23;;;;;;;13.64;63.85;102686.84;4977635;28;20035;-75
2022/10/19 02:35:27;;;;;;;24.83;23.15;;;;;;;13.64;63.77;102705.03;4977180;28;20035;-76
2022/10/19 02:37:56;;;;;;;25.52;23.33;;;;;;;13.63;63.97;102700.63;4976340;28;20034;-75
2022/10/19 02:40:23;;;;;;;24.02;22.73;;;;;;;13.61;63.53;102702.75;4976856;28;20413;-76
2022/10/19 02:42:55;;;;;;;24.67;23.17;;;;;;;13.59;63.57;102700.25;4977305;28;20431;-75
2022/10/19 02:46:00;;;;;;;24.67;23.17;;;;;;;13.58;63.82;102700.44;4977457;28;20474;-75
2022/10/19 02:48:30;;;;;;;22.88;21.58;;;;;;;13.56;63.74;102705.28;4976338;28;20046;-76
2022/10/19 02:50:55;;;;;;;24.50;22.80;;;;;;;13.54;63.93;102702.78;4977239;28;20475;-76
2022/10/19 02:53:20;;;;;;;23.42;21.92;;;;;;;13.54;63.80;102707.38;4977276;28;20090;-74
2022/10/19 02:55:47;;;;;;;24.58;23.23;;;;;;;13.52;63.58;102707.56;4977144;28;20027;-74
2022/10/19 02:58:13;;;;;;;23.17;21.52;;;;;;;13.51;63.56;102707.81;4976536;28;20042;-73
2022/10/19 03:00:38;;;;;;;24.60;22.95;;;;;;;13.49;63.61;102705.28;4976985;28;20035;-74
2022/10/19 03:03:03;;;;;;;24.58;23.20;;;;;;;13.48;63.79;102705.50;4976723;28;20114;-74
2022/10/19 03:05:29;;;;;;;24.05;22.63;;;;;;;13.46;63.68;102696.75;4977180;28;20101;-74
2022/10/19 03:07:54;;;;;;;22.90;21.60;;;;;;;13.45;63.66;102704.03;4977010;28;20031;-74
2022/10/19 03:10:20;;;;;;;25.17;23.67;;;;;;;13.44;63.75;102702.38;4976918;28;20126;-75
2022/10/19 03:12:45;;;;;;;24.23;22.58;;;;;;;13.42;63.82;102707.19;4977364;28;20139;-74
2022/10/19 03:15:15;;;;;;;24.45;22.90;;;;;;;13.40;63.82;102698.41;4976835;28;20118;-76
2022/10/19 03:17:41;;;;;;;24.77;23.38;;;;;;;13.39;63.90;102700.31;4976714;28;20027;-75
2022/10/19 03:20:07;;;;;;;23.98;22.50;;;;;;;13.37;63.72;102688.81;4976774;28;20521;-76
2022/10/19 03:22:32;;;;;;;24.60;23.20;;;;;;;13.37;63.76;102690.72;4977074;28;20507;-75
2022/10/19 03:24:57;;;;;;;22.83;21.52;;;;;;;13.35;63.50;102673.78;4976411;28;20031;-76
2022/10/19 03:27:23;;;;;;;22.98;21.77;;;;;;;13.33;63.69;102682.19;4976662;28;20407;-75
2022/10/19 03:29:48;;;;;;;23.38;21.88;;;;;;;13.33;63.42;102684.88;4976230;28;20492;-75
2022/10/19 03:32:14;;;;;;;24.20;22.90;;;;;;;13.31;63.81;102680.72;4976288;28;20031;-76
2022/10/19 03:34:39;;;;;;;23.60;22.20;;;;;;;13.30;63.87;102674.44;4976436;28;20386;-73
2022/10/19 03:37:05;;;;;;;23.08;21.88;;;;;;;13.28;63.63;102673.84;4976668;28;20037;-75
2022/10/19 03:39:30;;;;;;;25.30;23.40;;;;;;;13.28;63.80;102678.41;4976568;28;20425;-74
2022/10/19 03:41:56;;;;;;;22.23;20.83;;;;;;;13.27;63.59;102685.72;4976870;28;20047;-75
2022/10/19 03:44:21;;;;;;;23.80;22.13;;;;;;;13.25;63.54;102684.25;4975984;28;20030;-75
2022/10/19 03:46:46;;;;;;;23.73;22.13;;;;;;;13.23;63.60;102684.47;4976219;28;20526;-75
2022/10/19 03:49:12;;;;;;;22.95;21.75;;;;;;;13.22;63.68;102688.22;4976453;28;20446;-74
2022/10/19 03:51:37;;;;;;;24.23;22.70;;;;;;;13.20;63.65;102688.44;4976202;28;20090;-73
2022/10/19 03:54:06;;;;;;;23.67;22.30;;;;;;;13.19;63.45;102686.75;4975829;28;20037;-74
2022/10/19 03:56:33;;;;;;;21.88;20.58;;;;;;;13.17;63.73;102691.56;4976092;28;20030;-74
2022/10/19 03:59:02;;;;;;;23.67;22.27;;;;;;;13.17;63.42;102685.31;4976597;28;20482;-75
2022/10/19 04:01:28;;;;;;;22.77;21.17;;;;;;;13.16;63.67;102686.38;4976602;28;20062;-74
2022/10/19 04:04:00;;;;;;;23.73;22.23;;;;;;;13.14;63.69;102686.56;4976056;28;20018;-75
2022/10/19 04:06:32;;;;;;;23.17;21.75;;;;;;;13.14;63.59;102685.72;4975909;28;20031;-74
2022/10/19 04:08:58;;;;;;;24.77;23.20;;;;;;;13.13;63.86;102689.50;4974848;28;20033;-74
2022/10/19 04:11:26;;;;;;;22.65;21.35;;;;;;;13.11;63.44;102683.44;4976110;28;20110;-74
2022/10/19 04:13:52;;;;;;;24.67;23.20;;;;;;;13.09;63.59;102682.81;4976243;28;20035;-74
2022/10/19 04:16:19;;;;;;;23.60;22.20;;;;;;;13.08;63.89;102679.28;4975962;28;20110;-76
2022/10/19 04:18:45;;;;;;;25.10;23.35;;;;;;;13.07;63.67;102669.47;4975383;28;20023;-75
2022/10/19 04:21:34;;;;;;;22.02;20.80;;;;;;;13.07;63.62;102677.59;4975335;28;20117;-74
2022/10/19 04:24:05;;;;;;;24.38;22.75;;;;;;;13.05;63.36;102679.69;4975786;28;20027;-74
2022/10/19 04:26:31;;;;;;;23.90;22.55;;;;;;;13.02;63.71;102669.25;4975813;28;20091;-74
2022/10/19 04:28:58;;;;;;;22.38;21.02;;;;;;;13.02;63.75;102671.97;4975592;28;20469;-74
2022/10/19 04:31:24;;;;;;;22.70;21.38;;;;;;;12.99;63.34;102665.09;4975692;28;20113;-74
2022/10/19 04:33:49;;;;;;;26.15;24.10;;;;;;;12.98;63.49;102668.03;4975224;28;20069;-74
2022/10/19 04:36:15;;;;;;;22.73;21.05;;;;;;;12.97;63.56;102667.19;4975348;28;20034;-74
2022/10/19 04:38:40;;;;;;;24.13;22.75;;;;;;;12.95;63.59;102677.44;4975106;28;20066;-74
2022/10/19 04:41:11;;;;;;;24.40;22.90;;;;;;;12.95;63.65;102682.84;4975715;28;20055;-74
2022/10/19 04:43:36;;;;;;;23.23;21.83;;;;;;;12.94;63.43;102686.59;4974236;28;20070;-74
2022/10/19 04:46:07;;;;;;;22.80;21.02;;;;;;;12.93;63.66;102692.25;4974877;28;20037;-74
2022/10/19 04:48:34;;;;;;;24.63;23.13;;;;;;;12.91;63.44;102692.44;4975618;28;20360;-74
2022/10/19 04:50:59;;;;;;;24.40;22.90;;;;;;;12.91;63.40;102697.03;4975030;28;20077;-74
2022/10/19 04:53:25;;;;;;;23.60;21.80;;;;;;;12.89;63.61;102688.28;4973772;28;20062;-74
2022/10/19 04:55:51;;;;;;;23.15;21.52;;;;;;;12.87;63.27;102685.75;4974992;28;20097;-74
2022/10/19 04:58:16;;;;;;;24.75;22.90;;;;;;;12.85;63.55;102679.75;4975175;28;20455;-75
2022/10/19 05:00:42;;;;;;;23.35;22.00;;;;;;;12.85;63.63;102685.16;4974918;28;20038;-73
2022/10/19 05:03:07;;;;;;;23.63;21.40;;;;;;;12.85;63.44;102670.75;4975293;28;20110;-74
2022/10/19 05:05:33;;;;;;;22.38;21.10;;;;;;;12.83;63.33;102670.16;4975191;28;20037;-73
2022/10/19 05:07:59;;;;;;;22.83;21.33;;;;;;;12.81;63.47;102670.34;4975201;28;20118;-74
2022/10/19 05:10:24;;;;;;;21.40;20.10;;;;;;;12.78;63.49;102665.34;4974830;28;20062;-73
2022/10/19 05:12:49;;;;;;;23.95;22.52;;;;;;;12.78;63.41;102676.19;4973714;28;20070;-73
2022/10/19 05:15:15;;;;;;;22.95;21.65;;;;;;;12.77;63.53;102663.66;4974807;28;20080;-73
2022/10/19 05:17:40;;;;;;;22.83;21.17;;;;;;;12.75;63.45;102661.19;4974675;28;20031;-74
2022/10/19 05:20:06;;;;;;;22.15;20.60;;;;;;;12.75;63.49;102660.31;4974398;28;20035;-73
2022/10/19 05:22:32;;;;;;;23.83;22.27;;;;;;;12.73;63.39;102647.00;4974444;28;20121;-75
2022/10/19 05:24:57;;;;;;;24.38;22.70;;;;;;;12.72;63.56;102648.03;4974632;28;20121;-74
2022/10/19 05:27:22;;;;;;;22.27;20.63;;;;;;;12.70;63.54;102660.13;4957280;28;20482;-74
2022/10/19 05:29:48;;;;;;;22.60;21.20;;;;;;;12.69;63.44;102656.59;4973634;28;20434;-74
2022/10/19 05:32:13;;;;;;;23.38;21.75;;;;;;;12.68;63.28;102652.22;4974618;28;20035;-74
2022/10/19 05:34:39;;;;;;;23.38;21.65;;;;;;;12.68;63.53;102654.09;4974665;28;20444;-74
2022/10/19 05:37:04;;;;;;;20.40;19.25;;;;;;;12.67;63.44;102652.41;4973212;28;20046;-73
2022/10/19 05:39:30;;;;;;;23.05;21.75;;;;;;;12.64;63.33;102653.66;4974145;28;20085;-72
2022/10/19 05:41:55;;;;;;;25.02;23.17;;;;;;;12.63;63.64;102651.19;4975080;28;20438;-72
2022/10/19 05:44:22;;;;;;;21.48;20.08;;;;;;;12.62;63.29;102650.31;4974179;28;20057;-73
2022/10/19 05:46:49;;;;;;;23.70;22.23;;;;;;;12.61;63.24;102655.97;4974145;28;20073;-73
2022/10/19 05:49:17;;;;;;;22.67;21.48;;;;;;;12.59;63.32;102645.34;4974526;28;20121;-75
2022/10/19 05:51:43;;;;;;;21.50;20.20;;;;;;;12.57;63.41;102655.53;4973268;28;20114;-73
2022/10/19 05:54:10;;;;;;;21.58;19.95;;;;;;;12.55;63.38;102639.50;4974074;28;20045;-73
2022/10/19 05:56:35;;;;;;;22.55;20.63;;;;;;;12.55;63.73;102641.41;4974431;28;20035;-73
2022/10/19 05:59:04;;;;;;;22.67;21.05;;;;;;;12.53;63.42;102638.06;4974521;28;20042;-76
2022/10/19 06:01:30;;;;;;;22.55;21.20;;;;;;;12.52;63.62;102634.50;4974313;28;20449;-73
2022/10/19 06:03:57;;;;;;;23.88;21.73;;;;;;;12.51;63.23;102634.72;4974224;28;20475;-74
2022/10/19 06:06:23;;;;;;;23.13;21.83;;;;;;;12.50;63.26;102633.06;4973986;28;20400;-74
2022/10/19 06:08:49;;;;;;;21.83;20.40;;;;;;;12.48;63.37;102625.13;4972649;28;20046;-73
2022/10/19 06:11:18;;;;;;;21.35;20.05;;;;;;;12.47;63.28;102623.47;4973785;28;20038;-74
2022/10/19 06:13:45;;;;;;;22.33;20.83;;;;;;;12.46;63.51;102626.38;4974275;28;20042;-75
2022/10/19 06:16:11;;;;;;;24.00;22.00;;;;;;;12.45;63.45;102620.13;4974172;28;20041;-74
2022/10/19 06:18:38;;;;;;;21.27;19.92;;;;;;;12.44;63.36;102623.03;4973916;28;20031;-74
2022/10/19 06:21:06;;;;;;;23.13;21.65;;;;;;;12.42;63.47;102627.81;4974514;28;20118;-75
2022/10/19 06:23:32;;;;;;;21.30;20.10;;;;;;;12.42;63.26;102633.25;4974131;28;20066;-77
2022/10/19 06:25:58;;;;;;;27.67;22.58;;;;;;;12.41;63.57;102631.59;4972838;28;20035;-74
2022/10/19 06:28:23;;;;;;;26.08;24.33;;;;;;;12.40;63.42;102633.47;4973848;28;20040;-74
2022/10/19 06:30:49;;;;;;;23.77;22.08;;;;;;;12.39;63.53;102636.38;4973703;28;20378;-74
2022/10/19 06:33:14;;;;;;;28.17;25.48;;;;;;;12.36;63.43;102632.22;4975158;28;20035;-71
2022/10/19 06:35:41;;;;;;;24.55;23.05;;;;;;;12.36;63.32;102634.91;4977167;28;20457;-75
2022/10/19 06:38:08;;;;;;;24.88;22.98;;;;;;;12.34;63.41;102637.81;4975127;28;20086;-73
2022/10/19 06:40:34;;;;;;;21.90;20.45;;;;;;;12.34;63.40;102631.56;4976970;28;20062;-73
2022/10/19 06:42:59;;;;;;;24.88;22.73;;;;;;;12.31;63.35;102630.13;4975949;28;20034;-74
2022/10/19 06:45:25;;;;;;;22.52;21.23;;;;;;;12.31;63.30;102635.53;4977519;28;20039;-73
2022/10/19 06:47:50;;;;;;;23.45;22.02;;;;;;;12.29;63.55;102640.31;4975598;28;20046;-73
2022/10/19 06:50:16;;;;;;;23.08;21.38;;;;;;;12.28;63.41;102627.00;4976809;28;20046;-77
2022/10/19 06:52:41;;;;;;;23.63;21.92;;;;;;;12.27;63.48;102637.00;4976580;28;20053;-79
2022/10/19 06:55:07;;;;;;;22.38;20.63;;;;;;;12.26;63.21;102631.78;4976722;28;20030;-74
2022/10/19 06:57:32;;;;;;;22.20;20.60;;;;;;;12.25;63.39;102639.09;4976637;28;20467;-74
2022/10/19 06:59:58;;;;;;;25.73;23.80;;;;;;;12.25;63.36;102633.66;4976451;28;20038;-73
2022/10/19 07:02:23;;;;;;;23.15;21.65;;;;;;;12.24;63.23;102633.88;4976577;28;20456;-76
2022/10/19 07:04:49;;;;;;;22.08;20.77;;;;;;;12.22;63.03;102644.94;4976823;28;20045;-75
2022/10/19 07:07:14;;;;;;;25.50;21.67;;;;;;;12.20;63.32;102641.59;4976352;28;20039;-68
2022/10/19 07:09:39;;;;;;;23.85;21.88;;;;;;;12.19;63.22;102642.59;4976584;28;20415;-73
2022/10/19 07:12:05;;;;;;;22.73;20.73;;;;;;;12.18;63.40;102642.84;4976306;28;20475;-73
2022/10/19 07:14:30;;;;;;;23.25;21.25;;;;;;;12.18;63.47;102656.38;4976318;28;20061;-77
2022/10/19 07:16:56;;;;;;;22.77;21.08;;;;;;;12.17;63.32;102654.69;4976283;28;20383;-75
2022/10/19 07:19:25;;;;;;;24.48;22.20;;;;;;;12.16;63.42;102653.88;4976916;28;20363;-75
2022/10/19 07:21:51;;;;;;;20.30;19.00;;;;;;;12.13;63.39;102648.88;4975758;28;20047;-73
2022/10/19 07:24:17;;;;;;;22.15;20.55;;;;;;;12.15;63.52;102637.84;4976170;28;20117;-74
2022/10/19 07:26:43;;;;;;;23.25;21.63;;;;;;;12.13;63.38;102636.16;4976226;28;20070;-73
2022/10/19 07:29:08;;;;;;;23.67;21.83;;;;;;;12.12;63.26;102639.09;4975039;28;20042;-74
2022/10/19 07:31:34;;;;;;;22.23;19.95;;;;;;;12.11;63.45;102640.09;4975774;28;20138;-73
2022/10/19 07:34:02;;;;;;;23.40;21.60;;;;;;;12.10;63.47;102644.69;4976295;28;20053;-74
2022/10/19 07:36:30;;;;;;;23.20;21.27;;;;;;;12.09;63.50;102636.75;4976414;28;20113;-75
2022/10/19 07:38:55;;;;;;;25.13;23.13;;;;;;;12.08;63.44;102632.41;4975867;28;20170;-74
2022/10/19 07:41:25;;;;;;;22.73;20.92;;;;;;;12.07;63.53;102637.00;4975668;28;20325;-74
2022/10/19 07:43:51;;;;;;;23.83;21.80;;;;;;;12.07;63.63;102630.72;4975176;28;20034;-73
2022/10/19 07:46:19;;;;;;;20.65;19.45;;;;;;;12.05;63.50;102622.81;4975872;28;20070;-74
2022/10/19 07:48:45;;;;;;;24.80;22.70;;;;;;;12.05;63.69;102620.09;4975744;28;20455;-73
2022/10/19 07:51:12;;;;;;;21.58;19.88;;;;;;;12.05;63.73;102617.41;4975647;28;20049;-75
2022/10/19 07:53:38;;;;;;;23.23;21.42;;;;;;;12.04;63.64;102617.59;4975541;28;20043;-78
2022/10/19 07:56:09;;;;;;;25.17;23.00;;;;;;;12.03;63.77;102616.75;4975233;28;20049;-78
2022/10/19 07:58:35;;;;;;;23.15;21.55;;;;;;;12.02;63.96;102617.81;4975471;28;20031;-78
2022/10/19 08:01:02;;;;;;;23.42;21.70;;;;;;;12.02;63.84;102614.25;4975733;28;20037;-74
2022/10/19 08:03:28;;;;;;;23.52;21.65;;;;;;;12.00;64.00;102619.88;4974186;28;20126;-86
2022/10/19 08:05:53;;;;;;;22.73;21.00;;;;;;;12.01;63.97;102618.00;4974634;28;20118;-79
2022/10/19 08:08:18;;;;;;;22.58;21.05;;;;;;;12.00;64.32;102613.66;4975742;28;20042;-75
2022/10/19 08:10:44;;;;;;;22.63;20.77;;;;;;;11.99;64.29;102610.06;4975781;28;20034;-77
2022/10/19 08:13:09;;;;;;;24.90;23.00;;;;;;;11.99;64.60;102599.25;4973794;28;20035;-78
2022/10/19 08:15:34;;;;;;;28.05;20.48;;;;;;;11.98;64.30;102584.03;4974094;28;20039;-76
2022/10/19 08:18:00;;;;;;;22.10;20.63;;;;;;;11.98;64.56;102586.75;4975222;28;20031;-76
2022/10/19 08:20:25;;;;;;;21.15;19.38;;;;;;;11.98;64.41;102583.22;4974266;28;20042;-77
2022/10/19 08:22:51;;;;;;;23.70;22.08;;;;;;;11.98;64.86;102581.34;4975214;28;20030;-78
2022/10/19 08:25:16;;;;;;;22.20;20.67;;;;;;;11.96;64.86;102575.28;4975283;28;20070;-79
2022/10/19 08:27:42;;;;;;;23.42;21.50;;;;;;;11.97;64.91;102582.38;4974073;28;20378;-77
2022/10/19 08:30:07;;;;;;;24.02;22.23;;;;;;;11.97;65.14;102584.25;4975133;28;20046;-74
2022/10/19 08:32:33;;;;;;;22.52;21.08;;;;;;;11.96;65.05;102583.41;4974771;28;20034;-77
2022/10/19 08:34:58;;;;;;;22.52;20.25;;;;;;;11.95;64.85;102581.75;4974754;28;20070;-79
2022/10/19 08:37:23;;;;;;;22.55;20.90;;;;;;;11.96;65.41;102577.16;4975025;28;20042;-79
2022/10/19 08:39:49;;;;;;;21.35;20.02;;;;;;;11.95;65.56;102581.75;4974892;28;20062;-80
2022/10/19 08:42:21;;;;;;;21.83;20.23;;;;;;;11.94;65.41;102577.38;4974768;28;20030;-75
2022/10/19 08:44:59;;;;;;;21.80;20.33;;;;;;;11.94;65.60;102571.94;4974643;28;20069;-80
2022/10/19 08:47:55;;;;;;;19.77;18.73;;;;;;;11.95;65.37;102572.81;4974639;28;20038;-76
2022/10/19 08:50:25;;;;;;;21.05;19.73;;;;;;;11.94;65.66;102569.25;4975140;28;20034;-83
2022/10/19 08:53:25;;;;;;;23.98;21.95;;;;;;;11.95;66.12;102565.50;4974855;28;20442;-78
2022/10/19 08:55:58;;;;;;;22.73;21.08;;;;;;;11.94;66.21;102573.81;4971243;28;20070;-77
2022/10/19 08:58:35;;;;;;;21.60;20.02;;;;;;;11.94;66.05;102580.06;4973824;28;20039;-76
2022/10/19 09:01:15;;;;;;;24.33;22.42;;;;;;;11.95;66.20;102576.34;4974811;28;20037;-76
2022/10/19 09:03:47;;;;;;;22.15;20.25;;;;;;;11.95;66.67;102575.50;4974988;28;20084;-76
2022/10/19 09:06:33;;;;;;;24.20;22.25;;;;;;;11.95;66.57;102570.94;4974474;28;20113;-78
2022/10/19 09:08:59;;;;;;;22.50;20.92;;;;;;;11.93;66.38;102583.00;4973995;28;20035;-75
2022/10/19 09:11:30;;;;;;;23.92;21.75;;;;;;;11.94;66.36;102599.03;4974322;28;20046;-75
2022/10/19 09:14:20;;;;;;;23.45;21.45;;;;;;;11.96;66.59;102596.13;4974930;28;20049;-76
2022/10/19 09:16:45;;;;;;;24.42;22.73;;;;;;;11.95;66.67;102594.47;4974825;28;20045;-79
2022/10/19 09:19:31;;;;;;;24.45;22.27;;;;;;;11.95;66.43;102589.88;4974258;28;20467;-75
2022/10/19 09:22:17;;;;;;;21.55;20.25;;;;;;;11.96;66.46;102583.41;4974424;28;20422;-78
2022/10/19 09:24:54;;;;;;;22.27;20.70;;;;;;;11.96;66.73;102583.41;4974168;28;20493;-77
2022/10/19 09:27:25;;;;;;;23.92;19.15;;;;;;;11.96;66.82;102571.75;4974578;28;20466;-77
2022/10/19 09:30:02;;;;;;;24.00;22.20;;;;;;;11.97;66.67;102576.97;4974690;28;20026;-77
2022/10/19 09:32:33;;;;;;;21.67;20.27;;;;;;;11.97;66.65;102570.69;4974267;28;20027;-76
2022/10/19 09:35:06;;;;;;;21.95;19.52;;;;;;;11.98;66.50;102564.25;4973672;28;20406;-76
2022/10/19 09:37:39;;;;;;;20.75;19.55;;;;;;;11.98;66.85;102567.78;4974650;28;20467;-78
2022/10/19 09:40:05;;;;;;;23.48;21.52;;;;;;;12.01;66.99;102566.53;4974297;28;20055;-76
2022/10/19 09:42:32;;;;;;;21.90;20.27;;;;;;;12.01;66.77;102566.53;4974148;28;20039;-74
2022/10/19 09:45:00;;;;;;;21.65;19.92;;;;;;;12.01;66.83;102564.66;4974143;28;20054;-75
2022/10/19 09:47:36;;;;;;;20.48;19.10;;;;;;;12.02;66.70;102558.22;4974449;28;20060;-75
2022/10/19 09:50:22;;;;;;;23.45;21.63;;;;;;;12.04;66.72;102563.41;4974297;28;20031;-77
2022/10/19 09:52:51;;;;;;;23.38;21.67;;;;;;;12.06;67.15;102572.19;4974371;28;20035;-75
2022/10/19 09:55:19;;;;;;;23.98;22.33;;;;;;;12.03;66.60;102557.19;4974131;28;20035;-75
2022/10/19 09:57:49;;;;;;;22.33;20.63;;;;;;;12.06;66.55;102564.06;4973355;28;20170;-75
2022/10/19 10:00:23;;;;;;;24.38;22.75;;;;;;;12.07;66.85;102566.56;4974018;28;20254;-74
2022/10/19 10:02:53;;;;;;;21.42;19.83;;;;;;;12.08;66.44;102560.09;4974708;28;20054;-75
2022/10/19 10:05:28;;;;;;;24.30;22.52;;;;;;;12.11;67.07;102556.97;4973612;28;20359;-74
2022/10/19 10:07:54;;;;;;;20.38;19.17;;;;;;;12.12;66.63;102555.09;4975120;28;20030;-75
2022/10/19 10:10:29;;;;;;;23.70;21.75;;;;;;;12.13;66.89;102546.75;4977716;28;20364;-74
2022/10/19 10:12:58;;;;;;;22.90;21.08;;;;;;;12.15;66.71;102545.72;4977755;28;20041;-74
2022/10/19 10:15:25;;;;;;;;;;;;;;;12.16;66.85;102531.13;4978175;28;20578;-74
2022/10/19 10:17:51;;;;;;;21.92;20.42;;;;;;;12.17;66.86;102533.66;4977320;28;19941;-74
2022/10/19 10:20:22;;;;;;;23.88;22.10;;;;;;;12.17;66.76;102530.94;4977383;28;20035;-74
2022/10/19 10:23:00;;;;;;;24.15;21.55;;;;;;;12.18;66.98;102527.16;4977414;28;20037;-74
2022/10/19 10:25:32;;;;;;;20.38;19.10;;;;;;;12.20;67.08;102516.13;4977710;28;20038;-74
2022/10/19 10:28:00;;;;;;;21.52;19.95;;;;;;;12.21;67.05;102510.50;4977689;28;20113;-74
2022/10/19 10:30:31;;;;;;;23.58;21.85;;;;;;;12.22;66.95;102509.47;4977231;28;20098;-75
2022/10/19 10:32:57;;;;;;;21.83;20.17;;;;;;;12.24;67.02;102498.41;4977464;28;20066;-75
2022/10/19 10:35:33;;;;;;;25.58;23.55;;;;;;;12.25;66.97;102498.19;4977275;28;20105;-74
2022/10/19 10:38:15;;;;;;;23.00;21.52;;;;;;;12.26;66.97;102496.31;4976774;28;20030;-75
2022/10/19 10:40:50;;;;;;;23.02;21.55;;;;;;;12.27;66.76;102497.97;4977077;28;20077;-74
2022/10/19 10:43:19;;;;;;;24.73;22.33;;;;;;;12.29;66.69;102501.31;4977179;28;20033;-75
2022/10/19 10:45:47;;;;;;;22.08;20.40;;;;;;;12.31;66.60;102497.34;4977075;28;20037;-74
2022/10/19 10:48:19;;;;;;;23.00;21.38;;;;;;;12.33;66.65;102492.53;4975983;28;20086;-76
2022/10/19 10:50:44;;;;;;;21.63;19.88;;;;;;;12.36;66.78;102491.28;4976998;28;20035;-74
2022/10/19 10:53:42;;;;;;;25.17;23.40;;;;;;;12.38;66.62;102493.81;4976237;28;20042;-75
2022/10/19 10:56:22;;;;;;;22.90;20.90;;;;;;;12.38;66.52;102497.34;4976884;28;20109;-75
2022/10/19 10:58:57;;;;;;;22.70;21.10;;;;;;;12.38;66.54;102481.06;4977510;28;20034;-75
2022/10/19 11:01:32;;;;;;;26.10;23.63;;;;;;;12.41;66.68;102480.66;4977263;28;20114;-75
2022/10/19 11:04:28;;;;;;;23.48;21.50;;;;;;;12.44;66.85;102473.97;4976794;28;20352;-75
2022/10/19 11:07:00;;;;;;;24.67;22.30;;;;;;;12.45;66.69;102471.06;4975621;28;20039;-75
2022/10/19 11:09:36;;;;;;;24.65;23.05;;;;;;;12.47;66.14;102466.25;4976697;28;20467;-75
2022/10/19 11:12:04;;;;;;;22.05;20.70;;;;;;;12.48;66.25;102459.78;4976470;28;20026;-73
2022/10/19 11:14:37;;;;;;;23.85;22.23;;;;;;;12.49;66.37;102450.59;4976575;28;20046;-80
2022/10/19 11:17:10;;;;;;;22.75;21.25;;;;;;;12.51;66.35;102448.50;4976539;28;20097;-76
2022/10/19 11:19:41;;;;;;;24.00;22.00;;;;;;;12.57;66.09;102446.81;4976167;28;20033;-75